sensor_id;sensor_type;location;lat;lon;timestamp;P1;durP1;ratioP1;P2;durP2;ratioP2
1206;SDS011;593;53.184;8.216;2022-08-19T00:02:05;4.33;;;3.93;;
1206;SDS011;593;53.184;8.216;2022-08-19T00:04:34;6.17;;;4.00;;
1206;SDS011;593;53.184;8.216;2022-08-19T00:07:03;4.23;;;3.93;;
1206;SDS011;593;53.184;8.216;2022-08-19T00:09:33;3.37;;;3.03;;
1206;SDS011;593;53.184;8.216;2022-08-19T00:12:01;4.50;;;3.90;;
1206;SDS011;593;53.184;8.216;2022-08-19T00:14:37;4.60;;;4.20;;
1206;SDS011;593;53.184;8.216;2022-08-19T00:17:17;4.53;;;4.10;;
1206;SDS011;593;53.184;8.216;2022-08-19T00:19:50;4.97;;;4.47;;
1206;SDS011;593;53.184;8.216;2022-08-19T00:22:19;5.93;;;4.10;;
1206;SDS011;593;53.184;8.216;2022-08-19T00:24:51;6.93;;;4.53;;
1206;SDS011;593;53.184;8.216;2022-08-19T00:27:36;5.87;;;4.70;;
1206;SDS011;593;53.184;8.216;2022-08-19T00:30:05;4.60;;;4.00;;
1206;SDS011;593;53.184;8.216;2022-08-19T00:32:32;4.90;;;4.10;;
1206;SDS011;593;53.184;8.216;2022-08-19T00:35:02;5.00;;;4.37;;
1206;SDS011;593;53.184;8.216;2022-08-19T00:37:32;5.63;;;5.03;;
1206;SDS011;593;53.184;8.216;2022-08-19T00:40:03;5.43;;;4.93;;
1206;SDS011;593;53.184;8.216;2022-08-19T00:42:40;5.90;;;4.40;;
1206;SDS011;593;53.184;8.216;2022-08-19T00:45:22;5.70;;;4.13;;
1206;SDS011;593;53.184;8.216;2022-08-19T00:47:51;3.77;;;3.47;;
1206;SDS011;593;53.184;8.216;2022-08-19T00:50:18;4.37;;;3.97;;
1206;SDS011;593;53.184;8.216;2022-08-19T00:52:47;4.40;;;4.00;;
1206;SDS011;593;53.184;8.216;2022-08-19T00:55:17;4.77;;;4.33;;
1206;SDS011;593;53.184;8.216;2022-08-19T00:57:50;4.77;;;3.87;;
1206;SDS011;593;53.184;8.216;2022-08-19T01:00:36;4.87;;;4.00;;
1206;SDS011;593;53.184;8.216;2022-08-19T01:03:13;4.23;;;3.90;;
1206;SDS011;593;53.184;8.216;2022-08-19T01:05:42;4.63;;;3.80;;
1206;SDS011;593;53.184;8.216;2022-08-19T01:08:10;5.50;;;3.60;;
1206;SDS011;593;53.184;8.216;2022-08-19T01:10:56;5.20;;;4.20;;
1206;SDS011;593;53.184;8.216;2022-08-19T01:13:27;6.13;;;4.50;;
1206;SDS011;593;53.184;8.216;2022-08-19T01:16:03;4.60;;;3.83;;
1206;SDS011;593;53.184;8.216;2022-08-19T01:18:36;6.13;;;4.60;;
1206;SDS011;593;53.184;8.216;2022-08-19T01:21:12;7.03;;;4.50;;
1206;SDS011;593;53.184;8.216;2022-08-19T01:23:50;4.50;;;3.93;;
1206;SDS011;593;53.184;8.216;2022-08-19T01:26:22;4.43;;;3.37;;
1206;SDS011;593;53.184;8.216;2022-08-19T01:28:52;8.17;;;4.53;;
1206;SDS011;593;53.184;8.216;2022-08-19T01:31:29;7.87;;;4.37;;
1206;SDS011;593;53.184;8.216;2022-08-19T01:33:57;5.57;;;4.00;;
1206;SDS011;593;53.184;8.216;2022-08-19T01:36:42;6.20;;;4.77;;
1206;SDS011;593;53.184;8.216;2022-08-19T01:39:24;4.47;;;4.07;;
1206;SDS011;593;53.184;8.216;2022-08-19T01:41:53;4.40;;;4.00;;
1206;SDS011;593;53.184;8.216;2022-08-19T01:44:25;6.30;;;4.17;;
1206;SDS011;593;53.184;8.216;2022-08-19T01:46:52;4.80;;;4.40;;
1206;SDS011;593;53.184;8.216;2022-08-19T01:49:22;5.13;;;3.70;;
1206;SDS011;593;53.184;8.216;2022-08-19T01:52:06;4.60;;;3.90;;
1206;SDS011;593;53.184;8.216;2022-08-19T01:54:47;5.27;;;4.30;;
1206;SDS011;593;53.184;8.216;2022-08-19T01:57:14;5.53;;;4.00;;
1206;SDS011;593;53.184;8.216;2022-08-19T01:59:41;3.80;;;3.50;;
1206;SDS011;593;53.184;8.216;2022-08-19T02:02:12;4.40;;;4.00;;
1206;SDS011;593;53.184;8.216;2022-08-19T02:04:42;3.53;;;3.23;;
1206;SDS011;593;53.184;8.216;2022-08-19T02:07:20;3.77;;;3.47;;
1206;SDS011;593;53.184;8.216;2022-08-19T02:09:50;4.90;;;3.73;;
1206;SDS011;593;53.184;8.216;2022-08-19T02:12:27;4.17;;;3.77;;
1206;SDS011;593;53.184;8.216;2022-08-19T02:14:52;4.70;;;3.83;;
1206;SDS011;593;53.184;8.216;2022-08-19T02:17:22;4.13;;;3.73;;
1206;SDS011;593;53.184;8.216;2022-08-19T02:19:56;4.30;;;3.23;;
1206;SDS011;593;53.184;8.216;2022-08-19T02:22:25;3.20;;;2.90;;
1206;SDS011;593;53.184;8.216;2022-08-19T02:24:53;4.03;;;3.70;;
1206;SDS011;593;53.184;8.216;2022-08-19T02:27:25;4.77;;;4.03;;
1206;SDS011;593;53.184;8.216;2022-08-19T02:29:52;5.97;;;4.60;;
1206;SDS011;593;53.184;8.216;2022-08-19T02:32:23;5.27;;;4.77;;
1206;SDS011;593;53.184;8.216;2022-08-19T02:34:50;5.63;;;4.13;;
1206;SDS011;593;53.184;8.216;2022-08-19T02:37:19;5.47;;;4.27;;
1206;SDS011;593;53.184;8.216;2022-08-19T02:40:04;5.80;;;4.33;;
1206;SDS011;593;53.184;8.216;2022-08-19T02:42:30;4.17;;;3.50;;
1206;SDS011;593;53.184;8.216;2022-08-19T02:45:07;5.07;;;4.00;;
1206;SDS011;593;53.184;8.216;2022-08-19T02:47:40;5.90;;;4.50;;
1206;SDS011;593;53.184;8.216;2022-08-19T02:50:09;6.23;;;4.47;;
1206;SDS011;593;53.184;8.216;2022-08-19T02:52:36;4.00;;;3.40;;
1206;SDS011;593;53.184;8.216;2022-08-19T02:55:10;7.40;;;2.83;;
1206;SDS011;593;53.184;8.216;2022-08-19T02:57:39;3.50;;;2.50;;
1206;SDS011;593;53.184;8.216;2022-08-19T03:00:09;3.10;;;2.83;;
1206;SDS011;593;53.184;8.216;2022-08-19T03:02:48;4.70;;;3.80;;
1206;SDS011;593;53.184;8.216;2022-08-19T03:05:26;6.27;;;4.10;;
1206;SDS011;593;53.184;8.216;2022-08-19T03:07:53;7.50;;;4.60;;
1206;SDS011;593;53.184;8.216;2022-08-19T03:10:19;5.60;;;3.97;;
1206;SDS011;593;53.184;8.216;2022-08-19T03:12:49;4.57;;;4.00;;
1206;SDS011;593;53.184;8.216;2022-08-19T03:15:16;6.30;;;4.60;;
1206;SDS011;593;53.184;8.216;2022-08-19T03:17:44;8.47;;;4.67;;
1206;SDS011;593;53.184;8.216;2022-08-19T03:20:17;6.27;;;4.03;;
1206;SDS011;593;53.184;8.216;2022-08-19T03:22:48;5.17;;;4.13;;
1206;SDS011;593;53.184;8.216;2022-08-19T03:25:15;4.17;;;3.77;;
1206;SDS011;593;53.184;8.216;2022-08-19T03:27:48;5.90;;;4.27;;
1206;SDS011;593;53.184;8.216;2022-08-19T03:30:14;5.30;;;3.60;;
1206;SDS011;593;53.184;8.216;2022-08-19T03:32:40;5.47;;;4.17;;
1206;SDS011;593;53.184;8.216;2022-08-19T03:35:09;5.63;;;4.30;;
1206;SDS011;593;53.184;8.216;2022-08-19T03:37:44;5.67;;;3.10;;
1206;SDS011;593;53.184;8.216;2022-08-19T03:40:18;5.40;;;3.97;;
1206;SDS011;593;53.184;8.216;2022-08-19T03:42:48;3.87;;;3.30;;
1206;SDS011;593;53.184;8.216;2022-08-19T03:45:15;3.30;;;2.97;;
1206;SDS011;593;53.184;8.216;2022-08-19T03:47:44;3.47;;;3.10;;
1206;SDS011;593;53.184;8.216;2022-08-19T03:50:16;4.70;;;3.63;;
1206;SDS011;593;53.184;8.216;2022-08-19T03:52:47;4.70;;;3.67;;
1206;SDS011;593;53.184;8.216;2022-08-19T03:55:21;2.97;;;2.73;;
1206;SDS011;593;53.184;8.216;2022-08-19T03:57:46;3.50;;;3.13;;
1206;SDS011;593;53.184;8.216;2022-08-19T04:00:14;3.33;;;2.70;;
1206;SDS011;593;53.184;8.216;2022-08-19T04:02:41;3.10;;;2.80;;
1206;SDS011;593;53.184;8.216;2022-08-19T04:05:09;3.83;;;3.40;;
1206;SDS011;593;53.184;8.216;2022-08-19T04:07:37;3.80;;;3.00;;
1206;SDS011;593;53.184;8.216;2022-08-19T04:10:03;2.40;;;2.20;;
1206;SDS011;593;53.184;8.216;2022-08-19T04:12:33;3.90;;;3.10;;
1206;SDS011;593;53.184;8.216;2022-08-19T04:14:59;4.07;;;3.60;;
1206;SDS011;593;53.184;8.216;2022-08-19T04:17:31;2.93;;;2.63;;
1206;SDS011;593;53.184;8.216;2022-08-19T04:19:59;5.20;;;3.60;;
1206;SDS011;593;53.184;8.216;2022-08-19T04:22:26;4.00;;;2.90;;
1206;SDS011;593;53.184;8.216;2022-08-19T04:24:54;3.60;;;3.30;;
1206;SDS011;593;53.184;8.216;2022-08-19T04:27:22;3.50;;;3.20;;
1206;SDS011;593;53.184;8.216;2022-08-19T04:29:53;3.60;;;3.10;;
1206;SDS011;593;53.184;8.216;2022-08-19T04:32:20;4.03;;;3.37;;
1206;SDS011;593;53.184;8.216;2022-08-19T04:34:46;3.70;;;3.10;;
1206;SDS011;593;53.184;8.216;2022-08-19T04:37:12;2.87;;;2.60;;
1206;SDS011;593;53.184;8.216;2022-08-19T04:39:39;2.60;;;2.40;;
1206;SDS011;593;53.184;8.216;2022-08-19T04:42:23;3.50;;;3.10;;
1206;SDS011;593;53.184;8.216;2022-08-19T04:45:10;2.60;;;2.40;;
1206;SDS011;593;53.184;8.216;2022-08-19T04:47:41;2.83;;;2.63;;
1206;SDS011;593;53.184;8.216;2022-08-19T04:50:25;3.33;;;3.03;;
1206;SDS011;593;53.184;8.216;2022-08-19T04:52:57;3.50;;;3.10;;
1206;SDS011;593;53.184;8.216;2022-08-19T04:55:24;3.97;;;2.80;;
1206;SDS011;593;53.184;8.216;2022-08-19T04:58:00;3.53;;;2.67;;
1206;SDS011;593;53.184;8.216;2022-08-19T05:00:27;2.47;;;2.27;;
1206;SDS011;593;53.184;8.216;2022-08-19T05:02:53;3.17;;;2.87;;
1206;SDS011;593;53.184;8.216;2022-08-19T05:05:18;3.03;;;2.67;;
1206;SDS011;593;53.184;8.216;2022-08-19T05:07:46;3.93;;;2.90;;
1206;SDS011;593;53.184;8.216;2022-08-19T05:10:18;3.23;;;2.93;;
1206;SDS011;593;53.184;8.216;2022-08-19T05:12:45;4.70;;;3.70;;
1206;SDS011;593;53.184;8.216;2022-08-19T05:15:20;3.10;;;2.80;;
1206;SDS011;593;53.184;8.216;2022-08-19T05:17:48;3.33;;;3.03;;
1206;SDS011;593;53.184;8.216;2022-08-19T05:20:33;3.20;;;2.90;;
1206;SDS011;593;53.184;8.216;2022-08-19T05:23:17;3.60;;;3.23;;
1206;SDS011;593;53.184;8.216;2022-08-19T05:25:43;2.30;;;2.10;;
1206;SDS011;593;53.184;8.216;2022-08-19T05:28:18;3.30;;;3.00;;
1206;SDS011;593;53.184;8.216;2022-08-19T05:30:47;2.20;;;2.00;;
1206;SDS011;593;53.184;8.216;2022-08-19T05:33:15;3.23;;;2.90;;
1206;SDS011;593;53.184;8.216;2022-08-19T05:35:40;3.30;;;2.47;;
1206;SDS011;593;53.184;8.216;2022-08-19T05:38:12;3.23;;;2.60;;
1206;SDS011;593;53.184;8.216;2022-08-19T05:40:38;3.20;;;2.90;;
1206;SDS011;593;53.184;8.216;2022-08-19T05:43:07;3.23;;;2.77;;
1206;SDS011;593;53.184;8.216;2022-08-19T05:45:42;3.80;;;3.00;;
1206;SDS011;593;53.184;8.216;2022-08-19T05:48:12;3.93;;;3.53;;
1206;SDS011;593;53.184;8.216;2022-08-19T05:50:46;4.10;;;3.50;;
1206;SDS011;593;53.184;8.216;2022-08-19T05:53:20;4.17;;;3.77;;
1206;SDS011;593;53.184;8.216;2022-08-19T05:55:47;3.60;;;3.30;;
1206;SDS011;593;53.184;8.216;2022-08-19T05:58:14;5.30;;;4.00;;
1206;SDS011;593;53.184;8.216;2022-08-19T06:00:44;7.13;;;4.00;;
1206;SDS011;593;53.184;8.216;2022-08-19T06:03:10;3.40;;;3.00;;
1206;SDS011;593;53.184;8.216;2022-08-19T06:05:40;4.30;;;3.90;;
1206;SDS011;593;53.184;8.216;2022-08-19T06:08:09;5.63;;;4.17;;
1206;SDS011;593;53.184;8.216;2022-08-19T06:10:36;3.90;;;3.50;;
1206;SDS011;593;53.184;8.216;2022-08-19T06:13:04;3.77;;;3.47;;
1206;SDS011;593;53.184;8.216;2022-08-19T06:15:30;3.00;;;2.80;;
1206;SDS011;593;53.184;8.216;2022-08-19T06:17:59;3.30;;;3.00;;
1206;SDS011;593;53.184;8.216;2022-08-19T06:20:26;3.27;;;2.97;;
1206;SDS011;593;53.184;8.216;2022-08-19T06:22:52;3.47;;;3.00;;
1206;SDS011;593;53.184;8.216;2022-08-19T06:25:19;4.17;;;2.83;;
1206;SDS011;593;53.184;8.216;2022-08-19T06:27:45;3.50;;;2.30;;
1206;SDS011;593;53.184;8.216;2022-08-19T06:30:14;2.83;;;2.60;;
1206;SDS011;593;53.184;8.216;2022-08-19T06:32:45;2.53;;;2.20;;
1206;SDS011;593;53.184;8.216;2022-08-19T06:35:11;2.67;;;2.47;;
1206;SDS011;593;53.184;8.216;2022-08-19T06:37:39;2.80;;;2.60;;
1206;SDS011;593;53.184;8.216;2022-08-19T06:40:08;4.03;;;2.93;;
1206;SDS011;593;53.184;8.216;2022-08-19T06:42:39;2.87;;;2.57;;
1206;SDS011;593;53.184;8.216;2022-08-19T06:45:06;3.20;;;2.90;;
1206;SDS011;593;53.184;8.216;2022-08-19T06:47:33;2.63;;;2.40;;
1206;SDS011;593;53.184;8.216;2022-08-19T06:50:02;2.83;;;2.63;;
1206;SDS011;593;53.184;8.216;2022-08-19T06:52:33;3.73;;;2.73;;
1206;SDS011;593;53.184;8.216;2022-08-19T06:55:01;2.70;;;2.47;;
1206;SDS011;593;53.184;8.216;2022-08-19T06:57:29;3.50;;;3.20;;
1206;SDS011;593;53.184;8.216;2022-08-19T07:00:02;3.90;;;3.30;;
1206;SDS011;593;53.184;8.216;2022-08-19T07:02:31;4.10;;;3.47;;
1206;SDS011;593;53.184;8.216;2022-08-19T07:04:57;4.27;;;3.10;;
1206;SDS011;593;53.184;8.216;2022-08-19T07:07:23;2.80;;;2.60;;
1206;SDS011;593;53.184;8.216;2022-08-19T07:09:56;3.13;;;2.83;;
1206;SDS011;593;53.184;8.216;2022-08-19T07:12:22;3.67;;;3.30;;
1206;SDS011;593;53.184;8.216;2022-08-19T07:14:48;4.93;;;4.10;;
1206;SDS011;593;53.184;8.216;2022-08-19T07:17:14;5.00;;;4.03;;
1206;SDS011;593;53.184;8.216;2022-08-19T07:19:40;5.20;;;3.10;;
1206;SDS011;593;53.184;8.216;2022-08-19T07:22:08;3.20;;;3.00;;
1206;SDS011;593;53.184;8.216;2022-08-19T07:24:35;2.53;;;2.33;;
1206;SDS011;593;53.184;8.216;2022-08-19T07:27:02;4.07;;;3.23;;
1206;SDS011;593;53.184;8.216;2022-08-19T07:29:32;2.67;;;2.20;;
1206;SDS011;593;53.184;8.216;2022-08-19T07:31:59;2.50;;;2.33;;
1206;SDS011;593;53.184;8.216;2022-08-19T07:34:26;3.53;;;1.80;;
1206;SDS011;593;53.184;8.216;2022-08-19T07:36:53;2.07;;;1.80;;
1206;SDS011;593;53.184;8.216;2022-08-19T07:39:22;2.53;;;1.97;;
1206;SDS011;593;53.184;8.216;2022-08-19T07:41:49;2.50;;;1.90;;
1206;SDS011;593;53.184;8.216;2022-08-19T07:44:15;2.93;;;2.73;;
1206;SDS011;593;53.184;8.216;2022-08-19T07:46:43;2.97;;;2.50;;
1206;SDS011;593;53.184;8.216;2022-08-19T07:49:10;1.77;;;1.67;;
1206;SDS011;593;53.184;8.216;2022-08-19T07:51:49;1.73;;;1.63;;
1206;SDS011;593;53.184;8.216;2022-08-19T07:54:17;1.57;;;1.47;;
1206;SDS011;593;53.184;8.216;2022-08-19T07:56:50;1.90;;;1.80;;
1206;SDS011;593;53.184;8.216;2022-08-19T08:00:03;4.20;;;1.70;;
1206;SDS011;593;53.184;8.216;2022-08-19T08:02:40;1.70;;;1.60;;
1206;SDS011;593;53.184;8.216;2022-08-19T08:05:07;2.23;;;2.00;;
1206;SDS011;593;53.184;8.216;2022-08-19T08:07:52;1.67;;;1.27;;
1206;SDS011;593;53.184;8.216;2022-08-19T08:10:36;1.60;;;1.50;;
1206;SDS011;593;53.184;8.216;2022-08-19T08:13:02;1.50;;;1.40;;
1206;SDS011;593;53.184;8.216;2022-08-19T08:15:30;2.20;;;2.00;;
1206;SDS011;593;53.184;8.216;2022-08-19T08:17:56;1.70;;;1.60;;
1206;SDS011;593;53.184;8.216;2022-08-19T08:20:22;1.80;;;1.70;;
1206;SDS011;593;53.184;8.216;2022-08-19T08:22:48;1.90;;;1.80;;
1206;SDS011;593;53.184;8.216;2022-08-19T08:25:32;1.60;;;1.40;;
1206;SDS011;593;53.184;8.216;2022-08-19T08:28:00;1.60;;;1.23;;
1206;SDS011;593;53.184;8.216;2022-08-19T08:30:26;3.93;;;1.80;;
1206;SDS011;593;53.184;8.216;2022-08-19T08:32:53;1.67;;;1.50;;
1206;SDS011;593;53.184;8.216;2022-08-19T08:35:22;2.00;;;1.60;;
1206;SDS011;593;53.184;8.216;2022-08-19T08:37:48;2.70;;;1.80;;
1206;SDS011;593;53.184;8.216;2022-08-19T08:43:29;1.50;;;1.40;;
1206;SDS011;593;53.184;8.216;2022-08-19T08:51:25;3.03;;;1.57;;
1206;SDS011;593;53.184;8.216;2022-08-19T08:53:54;1.60;;;1.50;;
1206;SDS011;593;53.184;8.216;2022-08-19T08:56:20;1.40;;;1.23;;
1206;SDS011;593;53.184;8.216;2022-08-19T09:01:42;1.90;;;1.80;;
1206;SDS011;593;53.184;8.216;2022-08-19T09:04:07;1.63;;;1.53;;
1206;SDS011;593;53.184;8.216;2022-08-19T09:06:53;2.33;;;1.80;;
1206;SDS011;593;53.184;8.216;2022-08-19T09:09:40;1.83;;;1.40;;
1206;SDS011;593;53.184;8.216;2022-08-19T09:17:18;1.63;;;1.53;;
1206;SDS011;593;53.184;8.216;2022-08-19T09:22:16;1.70;;;1.60;;
1206;SDS011;593;53.184;8.216;2022-08-19T09:24:41;1.40;;;1.30;;
1206;SDS011;593;53.184;8.216;2022-08-19T09:27:06;1.40;;;1.30;;
1206;SDS011;593;53.184;8.216;2022-08-19T09:29:32;1.30;;;1.10;;
1206;SDS011;593;53.184;8.216;2022-08-19T09:31:57;1.77;;;1.23;;
1206;SDS011;593;53.184;8.216;2022-08-19T09:34:22;1.80;;;1.60;;
1206;SDS011;593;53.184;8.216;2022-08-19T09:36:49;2.40;;;1.27;;
1206;SDS011;593;53.184;8.216;2022-08-19T09:39:17;1.30;;;1.20;;
1206;SDS011;593;53.184;8.216;2022-08-19T09:41:43;2.40;;;1.50;;
1206;SDS011;593;53.184;8.216;2022-08-19T09:44:09;1.33;;;1.00;;
1206;SDS011;593;53.184;8.216;2022-08-19T09:46:37;1.40;;;1.30;;
1206;SDS011;593;53.184;8.216;2022-08-19T09:49:03;2.20;;;1.10;;
1206;SDS011;593;53.184;8.216;2022-08-19T09:51:31;1.77;;;1.10;;
1206;SDS011;593;53.184;8.216;2022-08-19T09:53:58;1.30;;;1.20;;
1206;SDS011;593;53.184;8.216;2022-08-19T09:56:26;1.60;;;1.50;;
1206;SDS011;593;53.184;8.216;2022-08-19T09:58:53;1.73;;;1.40;;
1206;SDS011;593;53.184;8.216;2022-08-19T10:01:25;2.50;;;1.23;;
1206;SDS011;593;53.184;8.216;2022-08-19T10:03:52;1.63;;;1.53;;
1206;SDS011;593;53.184;8.216;2022-08-19T10:06:20;1.70;;;1.20;;
1206;SDS011;593;53.184;8.216;2022-08-19T10:08:46;1.30;;;1.20;;
1206;SDS011;593;53.184;8.216;2022-08-19T10:11:12;2.03;;;1.70;;
1206;SDS011;593;53.184;8.216;2022-08-19T10:13:41;1.73;;;1.30;;
1206;SDS011;593;53.184;8.216;2022-08-19T10:16:08;1.30;;;1.20;;
1206;SDS011;593;53.184;8.216;2022-08-19T10:18:37;1.57;;;1.20;;
1206;SDS011;593;53.184;8.216;2022-08-19T10:21:07;1.47;;;1.00;;
1206;SDS011;593;53.184;8.216;2022-08-19T10:23:38;1.30;;;1.17;;
1206;SDS011;593;53.184;8.216;2022-08-19T10:26:05;1.07;;;0.97;;
1206;SDS011;593;53.184;8.216;2022-08-19T10:28:35;0.90;;;0.90;;
1206;SDS011;593;53.184;8.216;2022-08-19T10:31:08;1.67;;;1.30;;
1206;SDS011;593;53.184;8.216;2022-08-19T10:33:35;2.30;;;1.20;;
1206;SDS011;593;53.184;8.216;2022-08-19T10:36:02;1.60;;;1.50;;
1206;SDS011;593;53.184;8.216;2022-08-19T10:38:31;1.30;;;1.20;;
1206;SDS011;593;53.184;8.216;2022-08-19T10:40:56;1.40;;;1.30;;
1206;SDS011;593;53.184;8.216;2022-08-19T10:43:21;2.13;;;1.50;;
1206;SDS011;593;53.184;8.216;2022-08-19T10:45:53;2.07;;;1.33;;
1206;SDS011;593;53.184;8.216;2022-08-19T10:48:24;1.43;;;1.33;;
1206;SDS011;593;53.184;8.216;2022-08-19T10:50:49;1.37;;;1.27;;
1206;SDS011;593;53.184;8.216;2022-08-19T10:53:33;1.50;;;1.40;;
1206;SDS011;593;53.184;8.216;2022-08-19T10:55:59;2.47;;;1.43;;
1206;SDS011;593;53.184;8.216;2022-08-19T10:58:43;3.00;;;1.47;;
1206;SDS011;593;53.184;8.216;2022-08-19T11:01:09;4.00;;;1.83;;
1206;SDS011;593;53.184;8.216;2022-08-19T11:03:35;1.47;;;1.00;;
1206;SDS011;593;53.184;8.216;2022-08-19T11:06:02;2.17;;;1.17;;
1206;SDS011;593;53.184;8.216;2022-08-19T11:08:31;1.20;;;1.10;;
1206;SDS011;593;53.184;8.216;2022-08-19T11:11:00;1.30;;;1.20;;
1206;SDS011;593;53.184;8.216;2022-08-19T11:13:32;1.00;;;0.90;;
1206;SDS011;593;53.184;8.216;2022-08-19T11:16:08;1.20;;;1.10;;
1206;SDS011;593;53.184;8.216;2022-08-19T11:18:41;1.20;;;1.10;;
1206;SDS011;593;53.184;8.216;2022-08-19T11:21:13;1.10;;;0.97;;
1206;SDS011;593;53.184;8.216;2022-08-19T11:23:46;1.50;;;1.40;;
1206;SDS011;593;53.184;8.216;2022-08-19T11:26:14;2.30;;;1.20;;
1206;SDS011;593;53.184;8.216;2022-08-19T11:28:41;1.17;;;1.17;;
1206;SDS011;593;53.184;8.216;2022-08-19T11:31:12;1.40;;;1.30;;
1206;SDS011;593;53.184;8.216;2022-08-19T11:33:41;1.10;;;1.07;;
1206;SDS011;593;53.184;8.216;2022-08-19T11:36:07;1.53;;;1.30;;
1206;SDS011;593;53.184;8.216;2022-08-19T11:38:33;1.03;;;0.93;;
1206;SDS011;593;53.184;8.216;2022-08-19T11:41:01;1.43;;;1.10;;
1206;SDS011;593;53.184;8.216;2022-08-19T11:43:29;2.40;;;1.13;;
1206;SDS011;593;53.184;8.216;2022-08-19T11:45:55;1.50;;;1.40;;
1206;SDS011;593;53.184;8.216;2022-08-19T11:48:21;1.57;;;1.17;;
1206;SDS011;593;53.184;8.216;2022-08-19T11:50:50;1.50;;;1.40;;
1206;SDS011;593;53.184;8.216;2022-08-19T11:53:17;1.20;;;1.10;;
1206;SDS011;593;53.184;8.216;2022-08-19T11:55:45;1.70;;;1.60;;
1206;SDS011;593;53.184;8.216;2022-08-19T11:58:12;1.77;;;1.30;;
1206;SDS011;593;53.184;8.216;2022-08-19T12:00:38;1.20;;;1.10;;
1206;SDS011;593;53.184;8.216;2022-08-19T12:03:05;1.60;;;1.50;;
1206;SDS011;593;53.184;8.216;2022-08-19T12:05:30;1.37;;;1.27;;
1206;SDS011;593;53.184;8.216;2022-08-19T12:07:56;1.77;;;1.40;;
1206;SDS011;593;53.184;8.216;2022-08-19T12:10:21;1.40;;;1.30;;
1206;SDS011;593;53.184;8.216;2022-08-19T12:12:47;2.60;;;1.50;;
1206;SDS011;593;53.184;8.216;2022-08-19T12:15:13;1.40;;;1.30;;
1206;SDS011;593;53.184;8.216;2022-08-19T12:17:39;1.67;;;1.57;;
1206;SDS011;593;53.184;8.216;2022-08-19T12:20:07;1.40;;;1.30;;
1206;SDS011;593;53.184;8.216;2022-08-19T12:22:34;1.33;;;1.23;;
1206;SDS011;593;53.184;8.216;2022-08-19T12:25:00;1.67;;;1.57;;
1206;SDS011;593;53.184;8.216;2022-08-19T12:27:25;1.67;;;1.57;;
1206;SDS011;593;53.184;8.216;2022-08-19T12:29:51;1.47;;;1.37;;
1206;SDS011;593;53.184;8.216;2022-08-19T12:32:16;1.20;;;1.10;;
1206;SDS011;593;53.184;8.216;2022-08-19T12:34:42;1.60;;;1.50;;
1206;SDS011;593;53.184;8.216;2022-08-19T12:37:07;1.60;;;1.50;;
1206;SDS011;593;53.184;8.216;2022-08-19T12:39:37;1.43;;;1.33;;
1206;SDS011;593;53.184;8.216;2022-08-19T12:42:06;1.10;;;1.00;;
1206;SDS011;593;53.184;8.216;2022-08-19T12:44:33;1.43;;;1.23;;
1206;SDS011;593;53.184;8.216;2022-08-19T12:47:01;2.20;;;1.10;;
1206;SDS011;593;53.184;8.216;2022-08-19T12:49:29;0.90;;;0.90;;
1206;SDS011;593;53.184;8.216;2022-08-19T12:51:56;2.17;;;1.40;;
1206;SDS011;593;53.184;8.216;2022-08-19T12:54:23;1.40;;;1.30;;
1206;SDS011;593;53.184;8.216;2022-08-19T12:56:48;1.30;;;1.20;;
1206;SDS011;593;53.184;8.216;2022-08-19T12:59:14;1.47;;;1.37;;
1206;SDS011;593;53.184;8.216;2022-08-19T13:01:42;1.87;;;1.77;;
1206;SDS011;593;53.184;8.216;2022-08-19T13:06:33;1.58;;;1.48;;
1206;SDS011;593;53.184;8.216;2022-08-19T13:08:59;2.90;;;1.30;;
1206;SDS011;593;53.184;8.216;2022-08-19T13:11:24;1.90;;;1.57;;
1206;SDS011;593;53.184;8.216;2022-08-19T13:13:50;1.33;;;1.23;;
1206;SDS011;593;53.184;8.216;2022-08-19T13:16:16;1.50;;;1.40;;
1206;SDS011;593;53.184;8.216;2022-08-19T13:18:44;1.33;;;1.23;;
1206;SDS011;593;53.184;8.216;2022-08-19T13:21:12;1.40;;;1.30;;
1206;SDS011;593;53.184;8.216;2022-08-19T13:23:38;2.03;;;1.77;;
1206;SDS011;593;53.184;8.216;2022-08-19T13:26:05;1.87;;;1.77;;
1206;SDS011;593;53.184;8.216;2022-08-19T13:28:32;1.93;;;1.50;;
1206;SDS011;593;53.184;8.216;2022-08-19T13:31:18;1.47;;;1.40;;
1206;SDS011;593;53.184;8.216;2022-08-19T13:34:02;1.40;;;1.30;;
1206;SDS011;593;53.184;8.216;2022-08-19T13:36:28;1.70;;;1.60;;
1206;SDS011;593;53.184;8.216;2022-08-19T13:38:54;1.60;;;1.50;;
1206;SDS011;593;53.184;8.216;2022-08-19T13:41:19;2.20;;;1.57;;
1206;SDS011;593;53.184;8.216;2022-08-19T13:43:44;1.60;;;1.50;;
1206;SDS011;593;53.184;8.216;2022-08-19T13:46:11;1.40;;;1.30;;
1206;SDS011;593;53.184;8.216;2022-08-19T13:48:39;1.93;;;1.57;;
1206;SDS011;593;53.184;8.216;2022-08-19T13:51:05;2.10;;;1.77;;
1206;SDS011;593;53.184;8.216;2022-08-19T13:53:35;1.93;;;1.83;;
1206;SDS011;593;53.184;8.216;2022-08-19T13:56:08;1.60;;;1.50;;
1206;SDS011;593;53.184;8.216;2022-08-19T13:58:37;1.10;;;1.00;;
1206;SDS011;593;53.184;8.216;2022-08-19T14:01:03;1.53;;;1.37;;
1206;SDS011;593;53.184;8.216;2022-08-19T14:03:30;1.43;;;1.33;;
1206;SDS011;593;53.184;8.216;2022-08-19T14:05:56;1.93;;;1.27;;
1206;SDS011;593;53.184;8.216;2022-08-19T14:08:22;1.90;;;1.80;;
1206;SDS011;593;53.184;8.216;2022-08-19T14:10:48;1.63;;;1.53;;
1206;SDS011;593;53.184;8.216;2022-08-19T14:13:15;1.50;;;1.37;;
1206;SDS011;593;53.184;8.216;2022-08-19T14:15:44;1.50;;;1.40;;
1206;SDS011;593;53.184;8.216;2022-08-19T14:18:09;2.90;;;1.30;;
1206;SDS011;593;53.184;8.216;2022-08-19T14:20:35;1.77;;;1.67;;
1206;SDS011;593;53.184;8.216;2022-08-19T14:23:01;1.90;;;1.50;;
1206;SDS011;593;53.184;8.216;2022-08-19T14:25:28;1.57;;;1.27;;
1206;SDS011;593;53.184;8.216;2022-08-19T14:27:55;2.23;;;2.13;;
1206;SDS011;593;53.184;8.216;2022-08-19T14:30:22;1.70;;;1.60;;
1206;SDS011;593;53.184;8.216;2022-08-19T14:32:51;1.80;;;1.67;;
1206;SDS011;593;53.184;8.216;2022-08-19T14:35:17;1.60;;;1.50;;
1206;SDS011;593;53.184;8.216;2022-08-19T14:37:44;1.57;;;1.47;;
1206;SDS011;593;53.184;8.216;2022-08-19T14:40:10;1.63;;;1.53;;
1206;SDS011;593;53.184;8.216;2022-08-19T14:42:36;1.60;;;1.50;;
1206;SDS011;593;53.184;8.216;2022-08-19T14:45:03;2.63;;;2.00;;
1206;SDS011;593;53.184;8.216;2022-08-19T14:47:30;2.50;;;1.33;;
1206;SDS011;593;53.184;8.216;2022-08-19T14:49:56;7.30;;;1.77;;
1206;SDS011;593;53.184;8.216;2022-08-19T14:52:22;1.73;;;1.63;;
1206;SDS011;593;53.184;8.216;2022-08-19T14:54:50;1.60;;;1.50;;
1206;SDS011;593;53.184;8.216;2022-08-19T14:57:15;1.67;;;1.57;;
1206;SDS011;593;53.184;8.216;2022-08-19T14:59:41;2.20;;;1.93;;
1206;SDS011;593;53.184;8.216;2022-08-19T15:02:08;1.50;;;1.40;;
1206;SDS011;593;53.184;8.216;2022-08-19T15:04:33;1.70;;;1.60;;
1206;SDS011;593;53.184;8.216;2022-08-19T15:06:59;1.60;;;1.50;;
1206;SDS011;593;53.184;8.216;2022-08-19T15:09:24;2.20;;;2.10;;
1206;SDS011;593;53.184;8.216;2022-08-19T15:11:49;2.70;;;1.53;;
1206;SDS011;593;53.184;8.216;2022-08-19T15:14:15;3.63;;;1.93;;
1206;SDS011;593;53.184;8.216;2022-08-19T15:16:41;2.03;;;1.80;;
1206;SDS011;593;53.184;8.216;2022-08-19T15:19:07;4.83;;;2.37;;
1206;SDS011;593;53.184;8.216;2022-08-19T15:21:34;2.23;;;1.60;;
1206;SDS011;593;53.184;8.216;2022-08-19T15:24:02;2.17;;;1.83;;
1206;SDS011;593;53.184;8.216;2022-08-19T15:26:28;2.03;;;1.93;;
1206;SDS011;593;53.184;8.216;2022-08-19T15:28:56;2.00;;;1.90;;
1206;SDS011;593;53.184;8.216;2022-08-19T15:31:22;2.47;;;2.27;;
1206;SDS011;593;53.184;8.216;2022-08-19T15:33:48;1.93;;;1.83;;
1206;SDS011;593;53.184;8.216;2022-08-19T15:36:14;1.73;;;1.63;;
1206;SDS011;593;53.184;8.216;2022-08-19T15:38:40;1.83;;;1.73;;
1206;SDS011;593;53.184;8.216;2022-08-19T15:41:14;2.07;;;1.97;;
1206;SDS011;593;53.184;8.216;2022-08-19T15:43:48;2.50;;;2.30;;
1206;SDS011;593;53.184;8.216;2022-08-19T15:46:19;2.27;;;2.17;;
1206;SDS011;593;53.184;8.216;2022-08-19T15:48:48;1.90;;;1.80;;
1206;SDS011;593;53.184;8.216;2022-08-19T15:51:14;2.00;;;1.90;;
1206;SDS011;593;53.184;8.216;2022-08-19T15:53:39;2.27;;;2.07;;
1206;SDS011;593;53.184;8.216;2022-08-19T15:56:09;2.30;;;2.20;;
1206;SDS011;593;53.184;8.216;2022-08-19T15:58:35;1.70;;;1.60;;
1206;SDS011;593;53.184;8.216;2022-08-19T16:01:19;1.83;;;1.73;;
1206;SDS011;593;53.184;8.216;2022-08-19T16:04:04;1.50;;;1.40;;
1206;SDS011;593;53.184;8.216;2022-08-19T16:06:49;1.20;;;1.00;;